Terminal Aerodrome Forecast
Issued by NWS

Home | Current Version | Previous Version | Graphics & Text | Print | Product List | Glossary On
Versions: 1 2 3 4 5 6 7 8 9 10 11 12 13 14 15 16 17 18 19 20 21 22
000
FTUS43 KABR 301738
TAFMBG
TAF
KMBG 301738Z 3018/3118 08009KT P6SM SCT250
     FM310600 11009KT P6SM VCSH OVC070
     FM311200 13015KT P6SM BKN100=

USA.gov is the U.S. government's official web portal to all federal, state and local government web resources and services.